Clara — V2CC9 — position and weather

sailwx.info

Track history (hours):
 
Tides and Currents Weather Stations Pressure Air Temp Water Temp Dewpoint Dewpoint Depression Visibility Wind Speed Wind Dir Waves Ship Positions

Clara

Last reported at 2014-Oct-02 16:32 UTC. Time now 2014-Oct-02 16:37 UTC.
Position N 37°17' W 009°25'.

Length 108 m; draft 4.3 m.

Type: Cargo ship. MMSI: 304983000.

Date/timePositionNaut miles runAvg speedWind from/ knotsBaromVisibWave heightAir tempDewpointWater temp
2014-Oct-02 16:32N 37°17' W 009°25'10 9.9
2014-Oct-02 15:33N 37°08' W 009°22'9 9.4
2014-Oct-02 14:33N 36°59' W 009°19'69 9.3
2014-Oct-02 07:07N 36°27' W 008°03'12611.9
2014-Oct-01 20:32N 35°59' W 005°30'  
2014-Sep-28 16:33N 35°54' W 005°19'0 0.2
2014-Sep-28 15:32N 35°54' W 005°18'0 0.0
2014-Sep-28 14:32N 35°54' W 005°18'0 0.3
2014-Sep-28 13:33N 35°54' W 005°18'6 6.0
2014-Sep-28 12:28N 35°57' W 005°26'237 9.5
2014-Sep-27 11:33N 37°46' W 009°49'5510.6
2014-Sep-27 06:22N 38°39' W 010°04'  
2014-Sep-23 16:24N 50°35' E 000°19'1011.8
2014-Sep-23 15:33N 50°38' E 000°34'1211.4
2014-Sep-23 14:33N 50°45' E 000°49'28 9.4
2014-Sep-23 11:34N 51°02' E 001°24'9 8.7
2014-Sep-23 10:34N 51°08' E 001°34'1010.1
2014-Sep-23 09:34N 51°15' E 001°46'1212.0
2014-Sep-23 08:34N 51°25' E 001°58'1312.7
2014-Sep-23 07:33N 51°35' E 002°10'1412.5
2014-Sep-23 06:27N 51°46' E 002°24'8210.1
2014-Sep-22 22:23N 52°50' E 003°46'1511.2
2014-Sep-22 21:05N 52°60' E 004°04'611.2
2014-Sep-22 20:33N 53°04' E 004°12'1111.0
2014-Sep-22 19:33N 53°11' E 004°25'1110.7
2014-Sep-22 18:33N 53°21' E 004°32'9 9.3
2014-Sep-22 17:32N 53°29' E 004°42'9 8.8
2014-Sep-22 16:33N 53°32' E 004°55'  
Track history (hours):
 
Tides and Currents Weather Stations Pressure Air Temp Water Temp Dewpoint Dewpoint Depression Visibility Wind Speed Wind Dir Waves Ship Positions

Clara

Last reported at 2014-Oct-02 16:32 UTC. Time now 2014-Oct-02 16:37 UTC.
Position N 37°17' W 009°25'.

Length 108 m; draft 4.3 m.

Type: Cargo ship. MMSI: 304983000.

Date/timePositionNaut miles runAvg speedWind from/ knotsBaromVisibWave heightAir tempDewpointWater temp
2014-Oct-02 16:32N 37°17' W 009°25'10 9.9
2014-Oct-02 15:33N 37°08' W 009°22'9 9.4
2014-Oct-02 14:33N 36°59' W 009°19'69 9.3
2014-Oct-02 07:07N 36°27' W 008°03'12611.9
2014-Oct-01 20:32N 35°59' W 005°30'  
2014-Sep-28 16:33N 35°54' W 005°19'0 0.2
2014-Sep-28 15:32N 35°54' W 005°18'0 0.0
2014-Sep-28 14:32N 35°54' W 005°18'0 0.3
2014-Sep-28 13:33N 35°54' W 005°18'6 6.0
2014-Sep-28 12:28N 35°57' W 005°26'237 9.5
2014-Sep-27 11:33N 37°46' W 009°49'5510.6
2014-Sep-27 06:22N 38°39' W 010°04'  
2014-Sep-23 16:24N 50°35' E 000°19'1011.8
2014-Sep-23 15:33N 50°38' E 000°34'1211.4
2014-Sep-23 14:33N 50°45' E 000°49'28 9.4
2014-Sep-23 11:34N 51°02' E 001°24'9 8.7
2014-Sep-23 10:34N 51°08' E 001°34'1010.1
2014-Sep-23 09:34N 51°15' E 001°46'1212.0
2014-Sep-23 08:34N 51°25' E 001°58'1312.7
2014-Sep-23 07:33N 51°35' E 002°10'1412.5
2014-Sep-23 06:27N 51°46' E 002°24'8210.1
2014-Sep-22 22:23N 52°50' E 003°46'1511.2
2014-Sep-22 21:05N 52°60' E 004°04'611.2
2014-Sep-22 20:33N 53°04' E 004°12'1111.0
2014-Sep-22 19:33N 53°11' E 004°25'1110.7
2014-Sep-22 18:33N 53°21' E 004°32'9 9.3
2014-Sep-22 17:32N 53°29' E 004°42'9 8.8
2014-Sep-22 16:33N 53°32' E 004°55'  

Dump ship's entire track history